createdAt,value
2019-03-21T00:02:01.056Z,10.90
2019-03-21T00:04:31.300Z,10.80
2019-03-21T00:07:01.526Z,10.90
2019-03-21T00:09:31.779Z,10.80
2019-03-21T00:12:05.992Z,10.80
2019-03-21T00:14:55.246Z,10.70
2019-03-21T00:17:28.592Z,10.80
2019-03-21T00:19:59.133Z,10.70
2019-03-21T00:22:29.406Z,10.70
2019-03-21T00:24:59.711Z,10.70
2019-03-21T00:27:30.050Z,10.60
2019-03-21T00:30:00.352Z,10.60
2019-03-21T00:32:30.653Z,10.60
2019-03-21T00:35:00.887Z,10.60
2019-03-21T00:37:31.102Z,10.60
2019-03-21T00:40:03.787Z,10.60
2019-03-21T00:42:34.026Z,10.60
2019-03-21T00:45:04.560Z,10.50
2019-03-21T00:47:34.834Z,10.60
2019-03-21T00:50:05.797Z,10.60
2019-03-21T00:52:36.050Z,10.60
2019-03-21T00:55:08.952Z,10.60
2019-03-21T00:57:39.174Z,10.60
2019-03-21T01:00:13.540Z,10.60
2019-03-21T01:02:43.758Z,10.60
2019-03-21T01:05:14.190Z,10.60
2019-03-21T01:07:44.470Z,10.60
2019-03-21T01:10:15.914Z,10.60
2019-03-21T01:12:46.146Z,10.60
2019-03-21T01:15:16.384Z,10.60
2019-03-21T01:17:46.630Z,10.60
2019-03-21T01:20:16.872Z,10.60
2019-03-21T01:22:47.210Z,10.70
2019-03-21T01:25:20.842Z,10.70
2019-03-21T01:27:51.148Z,10.70
2019-03-21T01:30:21.595Z,10.70
2019-03-21T01:32:53.226Z,10.70
2019-03-21T01:35:23.590Z,10.70
2019-03-21T01:37:53.838Z,10.70
2019-03-21T01:40:25.084Z,10.70
2019-03-21T01:42:55.440Z,10.70
2019-03-21T01:45:25.745Z,10.70
2019-03-21T01:47:55.964Z,10.70
2019-03-21T01:50:26.382Z,10.60
2019-03-21T01:52:57.920Z,10.60
2019-03-21T01:55:29.190Z,10.60
2019-03-21T01:57:59.408Z,10.60
2019-03-21T02:00:32.266Z,10.60
2019-03-21T02:03:02.597Z,10.60
2019-03-21T02:05:32.796Z,10.60
2019-03-21T02:08:04.282Z,10.50
2019-03-21T02:10:34.580Z,10.60
2019-03-21T02:13:05.022Z,10.60
2019-03-21T02:15:35.281Z,10.60
2019-03-21T02:18:05.656Z,10.60
2019-03-21T02:20:35.943Z,10.60
2019-03-21T02:23:07.254Z,10.60
2019-03-21T02:25:37.566Z,10.60
2019-03-21T02:28:07.975Z,10.60
2019-03-21T02:30:39.294Z,10.50
2019-03-21T02:33:14.528Z,10.50
2019-03-21T02:35:44.805Z,10.50
2019-03-21T02:38:15.100Z,10.50
2019-03-21T02:40:45.448Z,10.50
2019-03-21T02:43:15.709Z,10.50
2019-03-21T02:45:46.041Z,10.50
2019-03-21T02:48:16.527Z,10.50
2019-03-21T02:50:47.887Z,10.50
2019-03-21T02:53:18.144Z,10.50
2019-03-21T02:55:49.360Z,10.50
2019-03-21T02:58:19.636Z,10.50
2019-03-21T03:00:49.983Z,10.50
2019-03-21T03:03:20.236Z,10.50
2019-03-21T03:05:50.522Z,10.40
2019-03-21T03:08:20.852Z,10.40
2019-03-21T03:10:52.699Z,10.40
2019-03-21T03:13:22.996Z,10.40
2019-03-21T03:15:54.387Z,10.40
2019-03-21T03:18:24.752Z,10.40
2019-03-21T03:20:55.100Z,10.50
2019-03-21T03:23:25.349Z,10.50
2019-03-21T03:25:55.660Z,10.50
2019-03-21T03:28:26.537Z,10.50
2019-03-21T03:30:58.195Z,10.50
2019-03-21T03:33:28.660Z,10.50
2019-03-21T03:36:00.082Z,10.50
2019-03-21T03:38:31.231Z,10.50
2019-03-21T03:41:01.563Z,10.50
2019-03-21T03:43:31.883Z,10.50
2019-03-21T03:46:03.054Z,10.50
2019-03-21T03:48:33.411Z,10.50
2019-03-21T03:51:03.631Z,10.50
2019-03-21T03:53:33.904Z,10.40
2019-03-21T03:56:04.577Z,10.40
2019-03-21T03:58:35.634Z,10.40
2019-03-21T04:01:06.298Z,10.50
2019-03-21T04:03:36.743Z,10.50
2019-03-21T04:06:07.395Z,10.50
2019-03-21T04:08:37.682Z,10.50
2019-03-21T04:11:07.910Z,10.50
2019-03-21T04:13:41.745Z,10.50
2019-03-21T04:16:12.043Z,10.60
2019-03-21T04:18:42.364Z,10.60
2019-03-21T04:21:12.848Z,10.60
2019-03-21T04:23:43.208Z,10.60
2019-03-21T04:26:20.378Z,10.60
2019-03-21T04:28:50.914Z,10.60
2019-03-21T04:31:21.222Z,10.50
2019-03-21T04:33:53.198Z,10.50
2019-03-21T04:36:23.705Z,10.50
2019-03-21T04:38:54.008Z,10.50
2019-03-21T04:41:24.316Z,10.50
2019-03-21T04:43:54.958Z,10.50
2019-03-21T04:46:25.256Z,10.60
2019-03-21T04:48:55.486Z,10.60
2019-03-21T04:51:25.837Z,10.60
2019-03-21T04:53:57.981Z,10.60
2019-03-21T04:56:28.291Z,10.60
2019-03-21T04:58:58.625Z,10.50
2019-03-21T05:01:28.904Z,10.50
2019-03-21T05:03:59.702Z,10.50
2019-03-21T05:06:32.744Z,10.50
2019-03-21T05:09:01.957Z,10.50
2019-03-21T05:11:32.437Z,10.50
2019-03-21T05:14:02.711Z,10.50
2019-03-21T05:16:33.022Z,10.50
2019-03-21T05:19:05.452Z,10.60
2019-03-21T05:21:35.927Z,10.60
2019-03-21T05:24:07.403Z,10.60
2019-03-21T05:26:37.687Z,10.60
2019-03-21T05:29:10.261Z,10.60
2019-03-21T05:31:40.519Z,10.60
2019-03-21T05:34:10.831Z,10.60
2019-03-21T05:36:41.083Z,10.60
2019-03-21T05:39:11.836Z,10.60
2019-03-21T05:41:42.149Z,10.60
2019-03-21T05:44:32.669Z,10.60
2019-03-21T05:47:02.969Z,10.60
2019-03-21T05:49:34.543Z,10.60
2019-03-21T05:52:05.574Z,10.70
2019-03-21T05:54:36.425Z,10.70
2019-03-21T05:57:08.121Z,10.70
2019-03-21T05:59:38.454Z,10.60
2019-03-21T06:02:09.831Z,10.70
2019-03-21T06:04:40.655Z,10.70
2019-03-21T06:07:24.756Z,10.70
2019-03-21T06:09:55.035Z,10.80
2019-03-21T06:12:26.454Z,10.80
2019-03-21T06:15:02.004Z,10.80
2019-03-21T06:17:33.047Z,10.80
2019-03-21T06:20:23.220Z,10.80
2019-03-21T06:23:29.635Z,10.80
2019-03-21T06:26:13.567Z,10.80
2019-03-21T06:28:43.790Z,10.80
2019-03-21T06:31:14.038Z,10.80
2019-03-21T06:33:44.957Z,10.80
2019-03-21T06:36:15.236Z,10.90
2019-03-21T06:38:45.483Z,10.90
2019-03-21T06:41:18.811Z,10.80
2019-03-21T06:43:49.128Z,10.90
2019-03-21T06:46:19.816Z,10.90
2019-03-21T06:48:52.877Z,10.90
2019-03-21T06:51:24.921Z,10.90
2019-03-21T06:53:55.230Z,11.00
2019-03-21T06:56:25.547Z,11.00
2019-03-21T06:58:55.784Z,11.00
2019-03-21T07:01:26.022Z,11.00
2019-03-21T07:04:06.537Z,11.10
2019-03-21T07:06:29.743Z,11.10
2019-03-21T07:09:00.010Z,11.10
2019-03-21T07:11:30.256Z,11.10
2019-03-21T07:14:00.492Z,11.20
2019-03-21T07:16:30.763Z,11.20
2019-03-21T07:19:01.161Z,11.20
2019-03-21T07:21:31.405Z,11.20
2019-03-21T07:24:01.733Z,11.20
2019-03-21T07:26:31.954Z,11.10
2019-03-21T07:29:02.204Z,11.10
2019-03-21T07:31:32.551Z,11.10
2019-03-21T07:34:02.789Z,11.20
2019-03-21T07:36:33.053Z,11.20
2019-03-21T07:39:04.064Z,11.20
2019-03-21T07:41:34.311Z,11.20
2019-03-21T07:44:07.157Z,11.20
2019-03-21T07:46:37.475Z,11.30
2019-03-21T07:49:07.926Z,11.30
2019-03-21T07:51:38.349Z,11.30
2019-03-21T07:54:08.664Z,11.40
2019-03-21T07:56:38.885Z,11.40
2019-03-21T07:59:09.202Z,11.30
2019-03-21T08:01:39.461Z,11.20
2019-03-21T08:04:10.789Z,11.20
2019-03-21T08:06:41.003Z,11.20
2019-03-21T08:09:11.291Z,11.30
2019-03-21T08:11:41.523Z,11.30
2019-03-21T08:14:11.785Z,11.30
2019-03-21T08:16:43.045Z,11.30
2019-03-21T08:19:13.373Z,11.40
2019-03-21T08:21:43.595Z,11.40
2019-03-21T08:24:13.847Z,11.50
2019-03-21T08:26:44.079Z,11.50
2019-03-21T08:29:14.684Z,11.60
2019-03-21T08:31:44.951Z,11.60
2019-03-21T08:34:15.185Z,11.60
2019-03-21T08:36:45.498Z,11.60
2019-03-21T08:39:15.712Z,11.70
2019-03-21T08:41:45.982Z,11.70
2019-03-21T08:44:16.245Z,11.70
2019-03-21T08:46:46.611Z,11.70
2019-03-21T08:49:16.853Z,11.70
2019-03-21T08:51:48.710Z,11.70
2019-03-21T08:54:19.031Z,11.70
2019-03-21T08:56:49.359Z,11.70
2019-03-21T08:59:22.250Z,11.80
2019-03-21T09:01:52.530Z,11.80
2019-03-21T09:04:22.948Z,11.90
2019-03-21T09:06:53.173Z,11.90
2019-03-21T09:09:23.475Z,11.90
2019-03-21T09:11:53.733Z,12.00
2019-03-21T09:14:24.083Z,12.10
2019-03-21T09:16:54.391Z,12.10
2019-03-21T09:19:24.602Z,12.20
2019-03-21T09:21:54.929Z,12.20
2019-03-21T09:24:26.312Z,12.20
2019-03-21T09:26:56.680Z,12.20
2019-03-21T09:29:26.920Z,12.30
2019-03-21T09:31:57.193Z,12.20
2019-03-21T09:34:27.500Z,12.20
2019-03-21T09:36:57.790Z,12.20
2019-03-21T09:39:28.029Z,12.30
2019-03-21T09:41:58.237Z,12.40
2019-03-21T09:44:29.168Z,12.40
2019-03-21T09:46:59.422Z,12.50
2019-03-21T09:49:29.626Z,12.60
2019-03-21T09:51:59.932Z,12.70
2019-03-21T09:54:30.167Z,12.80
2019-03-21T09:57:00.559Z,12.70
2019-03-21T09:59:30.806Z,12.60
2019-03-21T10:02:01.039Z,12.60
2019-03-21T10:04:31.340Z,12.60
2019-03-21T10:07:01.565Z,12.60
2019-03-21T10:09:31.827Z,12.60
2019-03-21T10:12:02.055Z,12.50
2019-03-21T10:14:32.375Z,12.60
2019-03-21T10:17:02.698Z,12.60
2019-03-21T10:19:32.998Z,12.70
2019-03-21T10:22:03.359Z,12.70
2019-03-21T10:24:33.708Z,12.60
2019-03-21T10:27:04.308Z,12.60
2019-03-21T10:29:34.604Z,12.60
2019-03-21T10:32:13.928Z,12.70
2019-03-21T10:34:36.922Z,12.70
2019-03-21T10:37:07.206Z,12.70
2019-03-21T10:39:37.532Z,12.70
2019-03-21T10:42:07.865Z,12.90
2019-03-21T10:44:38.127Z,12.90
2019-03-21T10:47:08.424Z,13.00
2019-03-21T10:49:40.100Z,13.10
2019-03-21T10:52:10.318Z,13.10
2019-03-21T10:54:40.610Z,13.00
2019-03-21T10:57:10.895Z,13.00
2019-03-21T10:59:41.280Z,13.00
2019-03-21T11:02:11.558Z,13.00
2019-03-21T11:04:41.794Z,12.90
2019-03-21T11:07:10.246Z,12.90
2019-03-21T11:09:40.601Z,12.80
2019-03-21T11:12:10.854Z,12.70
2019-03-21T11:14:43.466Z,12.70
2019-03-21T11:17:14.848Z,12.70
2019-03-21T11:19:45.181Z,12.80
2019-03-21T11:22:16.466Z,12.90
2019-03-21T11:24:46.680Z,12.80
2019-03-21T11:27:17.002Z,12.80
2019-03-21T11:29:47.328Z,13.00
2019-03-21T11:32:17.684Z,13.10
2019-03-21T11:34:47.980Z,13.10
2019-03-21T11:37:18.260Z,13.10
2019-03-21T11:39:48.550Z,13.20
2019-03-21T11:42:18.924Z,13.10
2019-03-21T11:44:49.210Z,13.10
2019-03-21T11:47:19.499Z,13.10
2019-03-21T11:49:49.901Z,13.10
2019-03-21T11:52:20.310Z,13.10
2019-03-21T11:54:50.548Z,13.00
2019-03-21T11:57:20.836Z,13.00
2019-03-21T11:59:52.245Z,12.90
2019-03-21T12:02:27.294Z,13.00
2019-03-21T12:04:54.800Z,13.00
2019-03-21T12:07:25.070Z,13.00
2019-03-21T12:09:55.321Z,13.10
2019-03-21T12:12:25.616Z,13.10
2019-03-21T12:14:55.883Z,13.20
2019-03-21T12:17:27.375Z,13.30
2019-03-21T12:19:57.625Z,13.30
2019-03-21T12:22:30.185Z,13.40
2019-03-21T12:25:00.812Z,13.50
2019-03-21T12:27:32.176Z,13.50
2019-03-21T12:30:02.515Z,13.60
2019-03-21T12:32:33.382Z,13.60
2019-03-21T12:35:04.011Z,13.40
2019-03-21T12:37:40.148Z,13.20
2019-03-21T12:40:10.734Z,13.30
2019-03-21T12:42:41.062Z,13.20
2019-03-21T12:45:11.438Z,13.20
2019-03-21T12:47:41.817Z,13.10
2019-03-21T12:50:12.591Z,13.10
2019-03-21T12:52:42.825Z,13.00
2019-03-21T12:55:13.230Z,12.90
2019-03-21T12:57:43.674Z,12.90
2019-03-21T13:00:14.562Z,12.80
2019-03-21T13:02:44.804Z,12.90
2019-03-21T13:05:21.040Z,13.00
2019-03-21T13:07:51.364Z,13.00
2019-03-21T13:10:21.646Z,13.10
2019-03-21T13:12:51.822Z,13.20
2019-03-21T13:15:29.785Z,13.20
2019-03-21T13:17:54.028Z,13.20
2019-03-21T13:20:24.356Z,13.20
2019-03-21T13:22:54.682Z,13.20
2019-03-21T13:25:24.954Z,13.30
2019-03-21T13:27:55.234Z,13.40
2019-03-21T13:30:25.727Z,13.30
2019-03-21T13:32:55.942Z,13.30
2019-03-21T13:35:32.783Z,13.40
2019-03-21T13:37:58.236Z,13.40
2019-03-21T13:40:28.528Z,13.40
2019-03-21T13:42:58.810Z,13.40
2019-03-21T13:45:29.332Z,13.40
2019-03-21T13:47:59.686Z,13.50
2019-03-21T13:50:31.050Z,13.40
2019-03-21T13:53:05.006Z,13.40
2019-03-21T13:55:33.289Z,13.40
2019-03-21T13:58:03.686Z,13.30
2019-03-21T14:00:33.970Z,13.40
2019-03-21T14:03:04.322Z,13.40
2019-03-21T14:05:37.262Z,13.40
2019-03-21T14:08:07.504Z,13.40
2019-03-21T14:10:37.779Z,13.40
2019-03-21T14:13:08.056Z,13.40
2019-03-21T14:15:38.316Z,13.40
2019-03-21T14:18:08.548Z,13.50
2019-03-21T14:20:38.794Z,13.50
2019-03-21T14:23:16.829Z,13.60
2019-03-21T14:25:40.970Z,13.60
2019-03-21T14:28:11.287Z,13.70
2019-03-21T14:30:42.589Z,13.60
2019-03-21T14:33:12.856Z,13.60
2019-03-21T14:35:43.075Z,13.60
2019-03-21T14:38:25.389Z,13.50
2019-03-21T14:40:45.471Z,13.40
2019-03-21T14:43:15.678Z,13.40
2019-03-21T14:45:46.095Z,13.40
2019-03-21T14:48:16.377Z,13.50
2019-03-21T14:50:46.622Z,13.60
2019-03-21T14:53:28.019Z,13.70
2019-03-21T14:55:48.964Z,13.70
2019-03-21T14:58:19.214Z,13.80
2019-03-21T15:00:49.654Z,13.80
2019-03-21T15:03:21.037Z,13.90
2019-03-21T15:05:51.364Z,13.90
2019-03-21T15:08:21.600Z,13.90
2019-03-21T15:10:51.862Z,13.90
2019-03-21T15:13:22.441Z,13.90
2019-03-21T15:15:52.891Z,13.80
2019-03-21T15:18:23.193Z,13.70
2019-03-21T15:20:53.618Z,13.70
2019-03-21T15:23:25.873Z,13.70
2019-03-21T15:25:56.147Z,13.70
2019-03-21T15:28:26.776Z,13.60
2019-03-21T15:30:57.123Z,13.60
2019-03-21T15:33:27.427Z,13.60
2019-03-21T15:35:57.715Z,13.60
2019-03-21T15:38:28.046Z,13.60
2019-03-21T15:40:58.285Z,13.50
2019-03-21T15:43:28.518Z,13.50
2019-03-21T15:45:58.777Z,13.40
2019-03-21T15:48:29.097Z,13.40
2019-03-21T15:51:04.226Z,13.40
2019-03-21T15:53:31.363Z,13.40
2019-03-21T15:56:01.646Z,13.40
2019-03-21T15:58:31.914Z,13.40
2019-03-21T16:01:02.789Z,13.40
2019-03-21T16:03:33.278Z,13.40
2019-03-21T16:06:03.504Z,13.40
2019-03-21T16:08:33.766Z,13.40
2019-03-21T16:11:04.218Z,13.30
2019-03-21T16:13:34.449Z,13.30
2019-03-21T16:16:04.799Z,13.20
2019-03-21T16:18:35.047Z,13.20
2019-03-21T16:21:06.171Z,13.10
2019-03-21T16:23:36.683Z,13.10
2019-03-21T16:26:06.952Z,13.00
2019-03-21T16:28:37.223Z,12.90
2019-03-21T16:31:07.499Z,12.90
2019-03-21T16:33:37.746Z,12.80
2019-03-21T16:36:07.971Z,12.70
2019-03-21T16:38:38.284Z,12.60
2019-03-21T16:41:08.597Z,12.60
2019-03-21T16:43:38.883Z,12.60
2019-03-21T16:46:09.103Z,12.50
2019-03-21T16:48:39.337Z,12.40
2019-03-21T16:51:10.624Z,12.40
2019-03-21T16:53:43.690Z,12.30
2019-03-21T16:56:12.826Z,12.30
2019-03-21T16:58:43.062Z,12.30
2019-03-21T17:01:13.383Z,12.20
2019-03-21T17:03:43.668Z,12.20
2019-03-21T17:06:13.972Z,12.20
2019-03-21T17:08:44.213Z,12.10
2019-03-21T17:11:14.523Z,12.10
2019-03-21T17:13:44.836Z,12.10
2019-03-21T17:16:15.161Z,12.00
2019-03-21T17:18:45.449Z,11.90
2019-03-21T17:21:15.716Z,11.90
2019-03-21T17:23:46.144Z,11.90
2019-03-21T17:26:16.599Z,11.80
2019-03-21T17:28:46.868Z,11.80
2019-03-21T17:31:17.125Z,11.70
2019-03-21T17:33:47.427Z,11.70
2019-03-21T17:36:20.581Z,11.60
2019-03-21T17:38:49.685Z,11.60
2019-03-21T17:41:23.005Z,11.50
2019-03-21T17:43:53.289Z,11.50
2019-03-21T17:46:23.586Z,11.40
2019-03-21T17:48:54.816Z,11.50
2019-03-21T17:51:25.041Z,11.50
2019-03-21T17:53:55.349Z,11.50
2019-03-21T17:56:25.721Z,11.50
2019-03-21T17:58:56.011Z,11.50
2019-03-21T18:01:26.435Z,11.40
2019-03-21T18:03:57.569Z,11.40
2019-03-21T18:06:29.652Z,11.40
2019-03-21T18:08:59.941Z,11.30
2019-03-21T18:11:30.164Z,11.30
2019-03-21T18:14:00.448Z,11.20
2019-03-21T18:16:30.809Z,11.10
2019-03-21T18:19:01.031Z,11.00
2019-03-21T18:24:08.051Z,11.00
2019-03-21T18:26:38.262Z,10.90
2019-03-21T18:29:08.504Z,10.90
2019-03-21T18:31:40.012Z,10.90
2019-03-21T18:34:10.325Z,10.80
2019-03-21T18:36:40.541Z,10.80
2019-03-21T18:39:10.804Z,10.80
2019-03-21T18:41:41.099Z,10.70
2019-03-21T18:44:11.407Z,10.70
2019-03-21T18:46:41.755Z,10.70
2019-03-21T18:49:12.042Z,10.60
2019-03-21T18:51:42.339Z,10.50
2019-03-21T18:54:12.749Z,10.50
2019-03-21T18:56:42.978Z,10.50
2019-03-21T18:59:13.232Z,10.50
2019-03-21T19:01:43.460Z,10.50
2019-03-21T19:04:13.794Z,10.50
2019-03-21T19:06:44.066Z,10.50
2019-03-21T19:09:14.473Z,10.40
2019-03-21T19:11:44.754Z,10.40
2019-03-21T19:14:17.185Z,10.30
2019-03-21T19:16:47.516Z,10.30
2019-03-21T19:19:17.949Z,10.20
2019-03-21T19:21:48.201Z,10.20
2019-03-21T19:24:18.497Z,10.20
2019-03-21T19:26:48.979Z,10.20
2019-03-21T19:29:19.308Z,10.20
2019-03-21T19:31:49.733Z,10.20
2019-03-21T19:34:20.053Z,10.20
2019-03-21T19:36:53.673Z,10.10
2019-03-21T19:39:25.613Z,10.00
2019-03-21T19:41:55.881Z,10.00
2019-03-21T19:44:26.129Z,10.00
2019-03-21T19:46:56.396Z,10.00
2019-03-21T19:49:27.703Z,10.00
2019-03-21T19:51:57.952Z,10.00
2019-03-21T19:54:28.259Z,10.10
2019-03-21T19:56:58.602Z,10.10
2019-03-21T19:59:28.843Z,10.10
2019-03-21T20:01:59.615Z,10.10
2019-03-21T20:04:30.041Z,10.20
2019-03-21T20:07:00.351Z,10.20
2019-03-21T20:09:30.663Z,10.20
2019-03-21T20:12:01.146Z,10.20
2019-03-21T20:14:31.594Z,10.20
2019-03-21T20:17:01.937Z,10.10
2019-03-21T20:19:32.195Z,10.10
2019-03-21T20:22:02.461Z,10.10
2019-03-21T20:24:33.037Z,10.20
2019-03-21T20:27:03.416Z,10.10
2019-03-21T20:29:33.700Z,10.20
2019-03-21T20:32:04.039Z,10.20
2019-03-21T20:34:34.318Z,10.30
2019-03-21T20:37:04.666Z,10.30
2019-03-21T20:39:34.917Z,10.20
2019-03-21T20:42:05.279Z,10.20
2019-03-21T20:44:35.480Z,10.20
2019-03-21T20:47:06.182Z,10.20
2019-03-21T20:49:36.420Z,10.10
2019-03-21T20:52:06.695Z,10.20
2019-03-21T20:54:36.936Z,10.20
2019-03-21T20:57:07.156Z,10.20
2019-03-21T20:59:37.525Z,10.20
2019-03-21T21:02:07.954Z,10.20
2019-03-21T21:04:38.184Z,10.10
2019-03-21T21:07:08.419Z,10.10
2019-03-21T21:09:38.651Z,10.10
2019-03-21T21:12:08.925Z,10.10
2019-03-21T21:14:39.223Z,10.20
2019-03-21T21:17:09.495Z,10.20
2019-03-21T21:19:39.753Z,10.30
2019-03-21T21:22:11.064Z,10.30
2019-03-21T21:24:41.309Z,10.30
2019-03-21T21:27:11.517Z,10.30
2019-03-21T21:29:43.031Z,10.30
2019-03-21T21:32:13.486Z,10.20
2019-03-21T21:34:43.992Z,10.20
2019-03-21T21:37:14.246Z,10.20
2019-03-21T21:39:45.533Z,10.20
2019-03-21T21:42:15.801Z,10.10
2019-03-21T21:44:46.080Z,10.10
2019-03-21T21:47:16.350Z,10.00
2019-03-21T21:49:46.576Z,10.00
2019-03-21T21:52:16.877Z,10.00
2019-03-21T21:54:49.153Z,9.90
2019-03-21T21:57:19.032Z,9.90
2019-03-21T21:59:49.363Z,9.90
2019-03-21T22:02:19.642Z,9.90
2019-03-21T22:04:49.852Z,9.90
2019-03-21T22:07:20.210Z,9.80
2019-03-21T22:09:50.570Z,9.80
2019-03-21T22:12:20.860Z,9.80
2019-03-21T22:14:51.194Z,9.70
2019-03-21T22:17:21.472Z,9.80
2019-03-21T22:19:51.839Z,9.80
2019-03-21T22:22:22.224Z,9.80
2019-03-21T22:24:52.466Z,9.70
2019-03-21T22:27:22.718Z,9.60
2019-03-21T22:29:53.008Z,9.60
2019-03-21T22:32:23.337Z,9.50
2019-03-21T22:34:53.614Z,9.50
2019-03-21T22:37:23.861Z,9.50
2019-03-21T22:39:54.186Z,9.50
2019-03-21T22:42:24.420Z,9.50
2019-03-21T22:44:54.654Z,9.50
2019-03-21T22:47:25.043Z,9.40
2019-03-21T22:49:55.347Z,9.40
2019-03-21T22:52:26.672Z,9.40
2019-03-21T22:54:56.985Z,9.40
2019-03-21T22:57:28.353Z,9.40
2019-03-21T22:59:58.591Z,9.30
2019-03-21T23:02:29.036Z,9.20
2019-03-21T23:04:59.361Z,9.20
2019-03-21T23:07:29.735Z,9.10
2019-03-21T23:10:00.155Z,9.00
2019-03-21T23:12:30.700Z,9.00
2019-03-21T23:15:01.315Z,8.90
2019-03-21T23:17:31.729Z,8.90
2019-03-21T23:20:02.033Z,8.90
2019-03-21T23:22:33.545Z,8.80
2019-03-21T23:25:04.655Z,7.70
2019-03-21T23:27:36.097Z,8.80
2019-03-21T23:30:08.271Z,8.70
2019-03-21T23:32:39.650Z,8.70
2019-03-21T23:35:10.160Z,8.70
2019-03-21T23:37:40.514Z,8.70
2019-03-21T23:40:10.941Z,7.50
2019-03-21T23:42:41.252Z,8.70
2019-03-21T23:45:12.010Z,8.60
2019-03-21T23:47:42.517Z,8.60
2019-03-21T23:50:13.336Z,8.60
2019-03-21T23:52:43.966Z,8.70
2019-03-21T23:55:14.711Z,8.60
2019-03-21T23:57:45.051Z,8.70
